Labelle, Idaho
Current Conditions -  °F | °C
As of 2:53 AM on Thursday 23 Oct 2014 (Local Time) from KRXE Reporting Station
Overcast Overcast  
Wind Chill: 35°   Ceiling: 10000
Heat Index: 35°   Visibility: 10mi
Dew Point: 30°   Wind: 3mph
Humidity: 82%   Direction: 40°NE
Pressure: 30.14"   Gusts: NA
Location:  43.6749°N, 111.89°W
Report Text: KRXE 230853Z AUTO 04003KT 10SM OVC100 02/M01 A3014 RMK AO2 SLP206 T00171011 55002
Loading
Personal Weather Stations






























Interactive Weather Map
Tropical Storm Tracking
New forecast layout! Learn more

10-Day Weather Forecast

Advertisements
Track Severe Weather on mobile